Time;durP1;ratioP1;P1;durP2;ratioP2;P2;SDS_P1;SDS_P2;PMS_P1;PMS_P2;Temp;Humidity;BMP_temperature;BMP_pressure;BME280_temperature;BME280_humidity;BME280_pressure;Samples;Min_cycle;Max_cycle;Signal;HPM_P1;HPM_P2
2022/06/23 00:01:19;;;;;;;;;13.67;11.00;;;;;25.21;54.07;100677.44;5076728;28;45428;-79
2022/06/23 00:03:48;;;;;;;;;16.67;13.33;;;;;24.95;56.26;100640.13;5068474;28;45499;-80
2022/06/23 00:06:32;;;;;;;;;12.67;12.67;;;;;25.16;57.98;100688.78;5065363;28;46267;-80
2022/06/23 00:08:57;;;;;;;;;14.67;13.00;;;;;24.75;60.48;100625.88;5074261;28;45509;-80
2022/06/23 00:11:25;;;;;;;;;15.33;13.33;;;;;25.03;61.28;100681.09;5074029;27;45413;-81
2022/06/23 00:13:54;;;;;;;;;14.00;12.67;;;;;25.02;61.22;100675.78;5070394;28;45615;-81
2022/06/23 00:16:26;;;;;;;;;15.33;13.67;;;;;24.98;60.68;100685.28;5071766;28;45535;-81
2022/06/23 00:18:51;;;;;;;;;14.33;12.00;;;;;24.94;60.85;100690.22;5071754;28;45527;-81
2022/06/23 00:21:29;;;;;;;;;16.67;15.67;;;;;24.78;61.82;100668.31;5071478;28;45422;-81
2022/06/23 00:24:00;;;;;;;;;17.33;15.00;;;;;24.66;61.11;100642.38;5073780;27;45504;-81
2022/06/23 00:26:29;;;;;;;;;18.00;16.00;;;;;24.84;61.41;100670.38;5071736;28;47227;-81
2022/06/23 00:29:13;;;;;;;;;17.67;16.33;;;;;24.81;61.90;100660.66;5074006;28;45255;-81
2022/06/23 00:31:57;;;;;;;;;20.67;18.67;;;;;24.70;62.38;100646.44;5073203;28;45275;-81
2022/06/23 00:34:37;;;;;;;;;16.67;16.67;;;;;24.75;62.19;100663.22;5071402;28;45598;-81
2022/06/23 00:37:14;;;;;;;;;18.33;17.67;;;;;24.64;61.78;100648.81;5074277;28;45583;-81
2022/06/23 00:39:47;;;;;;;;;18.00;17.67;;;;;24.70;62.14;100657.34;5069549;27;45483;-82
2022/06/23 00:42:18;;;;;;;;;16.00;14.00;;;;;24.65;61.71;100652.38;5074005;28;45810;-81
2022/06/23 00:44:55;;;;;;;;;20.00;18.33;;;;;24.44;60.74;100626.34;5071163;28;45548;-81
2022/06/23 00:47:45;;;;;;;;;19.00;18.67;;;;;24.43;60.72;100635.53;5072652;28;46157;-82
2022/06/23 00:50:35;;;;;;;;;19.67;19.67;;;;;24.47;60.47;100649.75;5067867;28;45988;-81
2022/06/23 00:53:03;;;;;;;;;21.67;20.67;;;;;24.46;60.79;100647.13;5073065;28;45471;-81
2022/06/23 00:55:34;;;;;;;;;18.00;16.33;;;;;24.37;60.59;100649.81;5073768;28;45446;-81
2022/06/23 00:58:25;;;;;;;;;19.00;18.33;;;;;24.01;60.82;100589.09;5056895;28;47582;-80
2022/06/23 01:00:55;;;;;;;;;18.33;15.33;;;;;24.25;60.74;100640.16;5069435;28;45444;-81
2022/06/23 01:03:37;;;;;;;;;18.33;14.00;;;;;24.19;59.99;100644.38;5071963;27;45871;-80
2022/06/23 01:06:17;;;;;;;;;18.00;14.67;;;;;24.06;60.24;100626.75;5070405;28;45476;-81
2022/06/23 01:08:58;;;;;;;;;17.00;15.33;;;;;23.90;60.10;100606.53;5046894;28;47738;-81
2022/06/23 01:11:33;;;;;;;;;17.00;15.33;;;;;24.16;61.21;100657.44;5072121;28;45379;-81
2022/06/23 01:14:39;;;;;;;;;14.67;13.00;;;;;24.14;60.98;100654.03;5049433;28;45625;-81
2022/06/23 01:17:28;;;;;;;;;11.67;11.00;;;;;24.11;60.92;100649.75;5013122;28;45488;-81
2022/06/23 01:20:11;;;;;;;;;15.67;14.33;;;;;24.10;61.40;100648.06;5008354;28;45525;-80
2022/06/23 01:22:48;;;;;;;;;15.00;13.67;;;;;24.09;61.42;100637.31;5012267;28;45468;-80
2022/06/23 01:25:41;;;;;;;;;17.00;15.00;;;;;24.06;61.19;100634.91;5012174;28;45851;-81
2022/06/23 01:28:17;;;;;;;;;13.00;13.00;;;;;24.02;61.48;100640.69;5013383;28;45652;-81
2022/06/23 01:30:50;;;;;;;;;16.67;15.00;;;;;24.01;61.21;100635.38;5009569;28;45506;-80
2022/06/23 01:33:19;;;;;;;;;16.67;15.67;;;;;23.81;61.11;100610.19;5011117;28;45483;-81
2022/06/23 01:35:51;;;;;;;;;18.33;16.67;;;;;23.95;62.06;100631.44;5011322;28;45496;-81
2022/06/23 01:38:52;;;;;;;;;13.33;13.33;;;;;23.95;61.35;100638.72;5012957;28;45883;-80
2022/06/23 01:41:31;;;;;;;;;18.00;17.33;;;;;23.95;61.45;100636.88;4935573;28;47237;-81
2022/06/23 01:44:23;;;;;;;;;15.00;14.33;;;;;23.85;61.37;100616.19;4944657;28;45534;-80
2022/06/23 01:46:52;;;;;;;;;11.67;11.00;;;;;23.77;61.75;100612.38;4936054;28;45511;-81
2022/06/23 01:49:26;;;;;;;;;15.33;15.33;;;;;23.86;61.49;100623.31;4944913;28;45641;-81
2022/06/23 01:51:54;;;;;;;;;19.00;19.00;;;;;23.86;62.45;100635.09;4937381;28;46706;-81
2022/06/23 01:54:20;;;;;;;;;15.00;13.33;;;;;23.86;61.93;100631.50;4962136;28;45565;-81
2022/06/23 01:57:01;;;;;;;;;19.00;17.67;;;;;23.82;62.52;100628.25;4969576;28;45434;-81
2022/06/23 01:59:38;;;;;;;;;13.00;13.00;;;;;23.82;61.95;100627.38;4971123;28;45703;-80
2022/06/23 02:02:39;;;;;;;;;17.67;17.33;;;;;23.65;61.96;100601.84;4982075;28;46153;-81
2022/06/23 02:05:11;;;;;;;;;15.33;13.00;;;;;23.79;62.33;100620.41;4939017;28;45469;-81
2022/06/23 02:07:39;;;;;;;;;17.67;16.67;;;;;23.75;62.03;100622.56;4948637;28;45568;-81
2022/06/23 02:10:28;;;;;;;;;16.33;15.00;;;;;23.39;62.31;100573.56;4938201;28;45312;-80
2022/06/23 02:12:57;;;;;;;;;18.33;16.67;;;;;23.70;62.57;100629.47;4936779;28;45572;-81
2022/06/23 02:15:40;;;;;;;;;20.00;18.33;;;;;23.43;62.60;100584.97;4937054;28;45452;-80
2022/06/23 02:18:13;;;;;;;;;17.67;17.67;;;;;23.70;62.77;100621.28;4980160;28;45844;-81
2022/06/23 02:20:53;;;;;;;;;21.00;17.67;;;;;23.59;62.56;100598.72;5006718;28;45463;-80
2022/06/23 02:23:32;;;;;;;;;18.67;16.00;;;;;23.74;62.38;100614.53;5009934;28;46452;-80
2022/06/23 02:26:05;;;;;;;;;15.00;14.67;;;;;23.61;62.45;100601.31;5007555;28;45507;-81
2022/06/23 02:28:49;;;;;;;;;20.33;17.00;;;;;23.43;62.21;100567.78;5012192;28;45496;-81
2022/06/23 02:31:37;;;;;;;;;22.33;18.33;;;;;23.75;62.72;100619.00;5007365;28;45709;-80
2022/06/23 02:34:40;;;;;;;;;17.00;16.00;;;;;23.74;62.98;100618.16;4990410;28;46277;-81
2022/06/23 02:37:43;;;;;;;;;16.33;16.33;;;;;23.75;63.02;100616.28;4987200;28;45693;-80
2022/06/23 02:40:17;;;;;;;;;16.33;15.33;;;;;23.75;63.92;100611.66;4988200;28;45672;-81
2022/06/23 02:42:47;;;;;;;;;16.33;15.33;;;;;23.64;63.78;100598.25;5014944;28;45525;-80
2022/06/23 02:45:42;;;;;;;;;20.00;18.33;;;;;23.75;64.07;100617.13;5038819;28;45801;-80
2022/06/23 02:48:23;;;;;;;;;18.67;17.67;;;;;23.76;63.53;100605.25;5020230;28;45462;-81
2022/06/23 02:51:00;;;;;;;;;17.33;17.33;;;;;23.76;64.04;100607.97;5033420;28;45375;-81
2022/06/23 02:54:02;;;;;;;;;21.67;18.00;;;;;23.76;64.25;100605.25;5038689;28;45256;-80
2022/06/23 02:56:47;;;;;;;;;22.67;16.00;;;;;23.78;63.70;100603.19;5028695;28;45563;-81
2022/06/23 02:59:23;;;;;;;;;21.00;17.33;;;;;23.77;63.71;100612.38;5040768;28;45394;-81
2022/06/23 03:02:10;;;;;;;;;14.33;14.33;;;;;23.78;63.76;100613.22;5042479;28;45480;-81
2022/06/23 03:04:52;;;;;;;;;16.67;16.33;;;;;23.79;64.04;100609.50;5034259;28;45676;-80
2022/06/23 03:07:41;;;;;;;;;20.00;18.00;;;;;23.80;64.31;100609.34;5034665;28;45515;-80
2022/06/23 03:10:26;;;;;;;;;16.33;13.00;;;;;23.83;64.31;100613.59;5034163;28;45531;-80
2022/06/23 03:13:17;;;;;;;;;22.33;18.00;;;;;23.82;64.07;100614.63;5061011;28;45444;-79
2022/06/23 03:16:20;;;;;;;;;20.67;18.33;;;;;23.80;64.03;100620.22;5074112;27;45448;-80
2022/06/23 03:18:56;;;;;;;;;18.67;17.67;;;;;23.83;64.66;100619.06;5070799;27;47380;-79
2022/06/23 03:21:29;;;;;;;;;16.00;15.33;;;;;23.84;64.56;100625.38;5068098;28;45491;-80
2022/06/23 03:24:24;;;;;;;;;17.00;15.67;;;;;23.83;64.66;100638.09;5074674;28;45532;-81
2022/06/23 03:27:05;;;;;;;;;13.33;10.67;;;;;23.82;64.47;100630.13;5076918;28;45420;-80
2022/06/23 03:29:36;;;;;;;;;9.33;8.33;;;;;23.79;64.73;100632.13;5073240;27;46006;-81
2022/06/23 03:32:10;;;;;;;;;4.00;4.00;;;;;23.75;64.92;100633.44;5076084;28;45515;-80
2022/06/23 03:34:43;;;;;;;;;5.67;5.67;;;;;23.75;65.00;100641.63;5076835;28;45318;-80
2022/06/23 03:37:17;;;;;;;;;4.33;4.00;;;;;23.72;65.52;100647.34;5073773;28;45470;-80
2022/06/23 03:42:35;;;;;;;;;2.00;2.00;;;;;23.49;65.32;100610.72;5074794;27;45483;-80
2022/06/23 03:45:19;;;;;;;;;2.67;2.33;;;;;23.68;64.45;100651.38;5072492;27;45467;-80
2022/06/23 03:47:57;;;;;;;;;2.00;2.00;;;;;23.60;64.51;100651.31;5071711;28;45481;-80
2022/06/23 03:50:37;;;;;;;;;4.33;3.00;;;;;23.60;64.01;100662.19;5072909;28;46304;-80
2022/06/23 03:53:35;;;;;;;;;2.00;2.00;;;;;23.56;63.91;100666.22;5073075;28;45461;-80
2022/06/23 03:56:07;;;;;;;;;3.50;2.25;;;;;23.54;64.22;100669.09;5069582;28;45488;-80
2022/06/23 03:58:53;;;;;;;;;2.33;1.33;;;;;23.35;64.25;100642.00;5066220;27;45475;-80
2022/06/23 04:01:24;;;;;;;;;4.67;3.00;;;;;23.51;63.98;100674.84;5076755;28;46133;-80
2022/06/23 04:03:58;;;;;;;;;5.00;2.00;;;;;23.51;64.86;100677.56;5072299;27;45436;-80
2022/06/23 04:06:39;;;;;;;;;3.33;3.33;;;;;23.51;64.75;100683.00;5073531;28;45594;-80
2022/06/23 04:09:16;;;;;;;;;2.00;2.00;;;;;23.50;63.90;100686.72;5073581;28;45241;-80
2022/06/23 04:12:05;;;;;;;;;3.33;3.33;;;;;23.46;64.50;100677.16;5070205;27;45511;-80
2022/06/23 04:14:49;;;;;;;;;4.00;3.00;;;;;23.46;64.47;100692.63;5074898;28;45632;-79
2022/06/23 04:17:17;;;;;;;;;3.00;3.00;;;;;23.42;64.06;100692.06;5067806;27;45777;-79
2022/06/23 04:19:59;;;;;;;;;3.00;2.00;;;;;23.29;63.51;100675.25;5073470;28;45473;-80
2022/06/23 04:22:43;;;;;;;;;2.75;2.25;;;;;23.25;63.61;100662.94;5070979;28;46084;-80
2022/06/23 04:25:17;;;;;;;;;3.50;2.25;;;;;23.37;63.74;100692.53;5072396;28;45461;-80
2022/06/23 04:27:53;;;;;;;;;2.00;2.00;;;;;23.38;63.20;100701.53;5074858;28;45413;-80
2022/06/23 04:30:40;;;;;;;;;2.00;2.00;;;;;23.37;63.63;100702.56;5075159;28;45534;-80
2022/06/23 04:33:15;;;;;;;;;1.33;1.33;;;;;23.35;62.72;100713.59;5075526;28;47258;-78
2022/06/23 04:35:41;;;;;;;;;1.25;1.25;;;;;23.33;63.08;100712.03;5069541;28;45436;-80
2022/06/23 04:38:19;;;;;;;;;2.00;2.00;;;;;23.13;63.28;100684.94;5066097;28;45374;-76
2022/06/23 04:40:49;;;;;;;;;3.00;2.00;;;;;23.23;63.28;100703.91;5073839;27;45464;-81
2022/06/23 04:43:19;;;;;;;;;2.50;2.50;;;;;23.29;63.51;100713.31;5067372;28;46711;-80
2022/06/23 04:46:02;;;;;;;;;1.00;1.00;;;;;23.28;63.06;100717.91;5066103;28;45793;-86
2022/06/23 04:49:23;;;;;;;;;3.33;2.33;;;;;22.43;63.01;100581.19;5256017;22;45811;-88
2022/06/23 04:52:17;;;;;;;;;3.00;2.00;;;;;23.20;63.12;100711.50;5027653;28;45613;-89
2022/06/23 04:55:19;;;;;;;;;3.00;2.67;;;;;22.25;63.29;100572.94;5042879;28;46443;-84
2022/06/23 04:58:04;;;;;;;;;2.25;1.75;;;;;22.13;63.67;100541.50;5048099;28;45605;-86
2022/06/23 05:00:29;;;;;;;;;2.00;1.33;;;;;23.15;63.50;100725.53;5245153;22;45489;-86
2022/06/23 05:03:29;;;;;;;;;3.00;3.00;;;;;22.82;63.54;100683.44;5070003;28;45466;-85
2022/06/23 05:06:05;;;;;;;;;2.67;1.67;;;;;21.71;63.57;100487.63;5072714;28;46332;-85
2022/06/23 05:08:32;;;;;;;;;2.00;2.00;;;;;22.56;63.96;100629.75;5052520;28;45503;-84
2022/06/23 05:11:48;;;;;;;;;3.00;1.67;;;;;23.13;63.51;100722.13;5070472;28;45530;-84
2022/06/23 05:14:26;;;;;;;;;3.00;1.00;;;;;22.54;63.80;100623.59;5028152;28;45561;-85
2022/06/23 05:17:27;;;;;;;;;3.67;3.00;;;;;22.70;63.62;100650.16;5013113;28;48687;-87
2022/06/23 05:19:55;;;;;;;;;3.33;3.33;;;;;21.81;64.09;100507.44;4944457;28;45433;-90
2022/06/23 05:22:32;;;;;;;;;2.25;2.25;;;;;21.83;63.44;100519.00;4941051;28;45463;-88
2022/06/23 05:25:10;;;;;;;;;2.00;2.00;;;;;21.90;64.18;100539.13;4944463;28;45527;-85
2022/06/23 05:27:36;;;;;;;;;2.33;2.33;;;;;22.08;64.37;100577.25;4936676;28;46130;-84
2022/06/23 05:30:18;;;;;;;;;2.00;2.00;;;;;23.14;64.20;100751.88;4943050;28;45560;-85
2022/06/23 05:32:50;;;;;;;;;3.00;1.00;;;;;22.24;63.72;100597.50;4945872;28;45928;-85
2022/06/23 05:35:21;;;;;;;;;3.00;2.00;;;;;23.14;64.34;100735.56;4937969;28;45464;-85
2022/06/23 05:38:06;;;;;;;;;2.50;2.00;;;;;23.17;64.53;100737.13;4940157;28;46109;-83
2022/06/23 05:40:32;;;;;;;;;2.00;2.00;;;;;23.21;64.41;100735.00;4938584;28;45489;-82
2022/06/23 05:43:01;;;;;;;;;2.50;2.50;;;;;22.93;63.83;100684.09;4936912;28;45507;-82
2022/06/23 05:45:31;;;;;;;;;2.67;2.00;;;;;23.26;64.28;100730.81;4941572;28;45863;-85
2022/06/23 05:48:03;;;;;;;;;2.33;2.00;;;;;22.89;63.35;100662.81;4947250;28;47239;-84
2022/06/23 05:50:43;;;;;;;;;2.33;2.00;;;;;23.30;62.93;100724.06;4970474;28;45527;-83
2022/06/23 05:53:33;;;;;;;;;2.00;2.00;;;;;23.07;63.61;100692.81;4968904;28;45439;-84
2022/06/23 05:56:28;;;;;;;;;2.67;1.67;;;;;23.25;63.09;100722.78;4988246;28;45443;-84
2022/06/23 05:59:05;;;;;;;;;1.67;1.67;;;;;22.65;62.65;100642.44;5072247;28;46280;-86
2022/06/23 06:01:49;;;;;;;;;4.33;2.67;;;;;23.04;62.68;100688.53;5074328;28;45499;-86
2022/06/23 06:04:35;;;;;;;;;3.67;3.00;;;;;23.27;62.26;100721.66;5074234;28;45503;-87
2022/06/23 06:07:06;;;;;;;;;5.00;3.00;;;;;22.60;62.06;100606.72;5065798;28;45539;-87
2022/06/23 06:13:04;;;;;;;;;3.00;3.00;;;;;23.28;61.65;100707.03;5272827;22;45508;-87
2022/06/23 06:16:00;;;;;;;;;4.67;2.33;;;;;22.07;61.53;100507.66;5041928;28;45446;-86
2022/06/23 06:18:43;;;;;;;;;3.67;3.67;;;;;22.80;60.54;100631.94;5007206;28;45643;-85
2022/06/23 06:21:16;;;;;;;;;4.33;3.33;;;;;23.34;60.75;100690.13;5046388;28;45583;-86
2022/06/23 06:23:55;;;;;;;;;3.00;3.00;;;;;22.39;59.96;100538.19;5050095;28;46921;-87
2022/06/23 06:26:32;;;;;;;;;3.00;3.00;;;;;23.49;60.02;100700.50;5053120;28;45561;-88
2022/06/23 06:29:17;;;;;;;;;4.00;4.00;;;;;22.79;59.29;100578.59;5051878;28;45349;-88
2022/06/23 06:31:47;;;;;;;;;6.00;3.33;;;;;22.69;58.75;100556.91;5049183;28;45475;-87
2022/06/23 06:34:30;;;;;;;;;2.67;2.67;;;;;23.42;58.52;100672.19;5047282;28;45487;-84
2022/06/23 06:36:55;;;;;;;;;4.00;4.00;;;;;22.79;58.36;100566.88;5054104;28;45351;-83
2022/06/23 06:39:32;;;;;;;;;4.33;3.67;;;;;23.41;57.90;100676.75;5051089;28;47143;-82
2022/06/23 06:42:11;;;;;;;;;3.00;3.00;;;;;23.65;58.21;100717.00;5049175;28;46574;-83
2022/06/23 06:44:42;;;;;;;;;4.00;4.00;;;;;23.54;57.98;100701.72;5045529;28;45572;-83
2022/06/23 06:47:26;;;;;;;;;4.00;4.00;;;;;23.72;58.24;100711.81;5051532;28;45602;-83
2022/06/23 06:49:54;;;;;;;;;4.67;4.67;;;;;23.69;57.89;100687.59;5054242;28;45714;-83
2022/06/23 06:52:20;;;;;;;;;5.00;3.67;;;;;23.74;57.07;100704.34;5051489;28;45701;-83
2022/06/23 06:54:55;;;;;;;;;4.33;4.00;;;;;23.46;58.02;100671.72;5052699;28;46104;-85
2022/06/23 06:57:35;;;;;;;;;3.67;3.67;;;;;23.68;58.06;100716.69;5046344;28;45916;-84
2022/06/23 07:00:05;;;;;;;;;5.00;4.00;;;;;23.60;58.19;100709.31;5044322;28;45515;-84
2022/06/23 07:02:56;;;;;;;;;3.33;3.00;;;;;23.68;58.28;100719.41;5040343;28;46530;-83
2022/06/23 07:05:32;;;;;;;;;5.67;5.67;;;;;23.49;57.95;100685.03;5052526;28;45464;-86
2022/06/23 07:08:16;;;;;;;;;3.00;3.00;;;;;23.73;57.15;100727.97;5048740;28;45411;-84
2022/06/23 07:10:47;;;;;;;;;4.00;4.00;;;;;23.58;57.61;100680.53;5054420;28;45412;-84
2022/06/23 07:13:26;;;;;;;;;4.33;3.33;;;;;23.81;57.51;100713.63;5058410;28;47481;-84
2022/06/23 07:16:04;;;;;;;;;2.00;2.00;;;;;23.67;57.01;100690.50;5051225;28;45511;-85
2022/06/23 07:18:47;;;;;;;;;4.00;4.00;;;;;23.80;57.35;100701.88;5057076;28;45561;-83
2022/06/23 07:21:21;;;;;;;;;3.00;3.00;;;;;23.66;56.86;100663.44;5046622;28;48368;-83
2022/06/23 07:23:58;;;;;;;;;4.00;4.00;;;;;23.97;56.48;100715.66;5053849;28;46399;-84
2022/06/23 07:26:42;;;;;;;;;4.00;4.00;;;;;24.00;56.88;100718.94;5054376;28;45560;-83
2022/06/23 07:29:22;;;;;;;;;5.67;4.00;;;;;24.04;55.93;100715.91;5051353;28;45463;-83
2022/06/23 07:32:26;;;;;;;;;3.00;3.00;;;;;23.85;56.42;100704.13;5054053;28;46328;-84
2022/06/23 07:34:58;;;;;;;;;4.00;4.00;;;;;24.06;56.61;100728.34;5014728;28;46289;-85
2022/06/23 07:37:43;;;;;;;;;2.67;2.67;;;;;23.90;56.03;100701.81;5018344;28;45510;-83
2022/06/23 07:40:11;;;;;;;;;3.33;3.33;;;;;24.07;55.88;100740.97;5014567;28;45567;-85
2022/06/23 07:42:41;;;;;;;;;6.33;4.00;;;;;23.96;55.25;100728.41;5016349;28;45473;-84
2022/06/23 07:45:55;;;;;;;;;2.67;2.67;;;;;24.10;55.40;100746.09;5010207;28;46284;-85
2022/06/23 07:48:21;;;;;;;;;3.33;3.33;;;;;23.78;55.15;100681.28;4986442;28;45451;-84
2022/06/23 07:50:47;;;;;;;;;5.33;5.00;;;;;24.20;55.26;100746.00;5015628;28;45464;-85
2022/06/23 07:53:21;;;;;;;;;7.00;4.00;;;;;24.01;54.92;100708.91;5014649;28;45613;-85
2022/06/23 07:55:48;;;;;;;;;6.67;5.00;;;;;23.59;56.05;100663.19;5014038;28;47514;-85
2022/06/23 07:58:15;;;;;;;;;5.33;5.33;;;;;24.05;55.61;100717.63;4993779;28;45976;-84
2022/06/23 08:00:44;;;;;;;;;3.00;3.00;;;;;23.80;55.94;100669.22;5010867;28;45584;-83
2022/06/23 08:03:15;;;;;;;;;4.67;3.67;;;;;24.05;54.99;100674.91;5016114;28;45378;-86
2022/06/23 08:05:56;;;;;;;;;18.00;16.33;;;;;24.17;55.08;100689.13;5015215;28;46355;-87
2022/06/23 08:08:43;;;;;;;;;3.33;3.33;;;;;24.49;54.47;100755.81;5015514;28;45545;-85
2022/06/23 08:14:11;;;;;;;;;5.33;5.33;;;;;24.42;54.63;100695.66;5051598;28;45417;-86
2022/06/23 08:16:50;;;;;;;;;6.33;5.00;;;;;23.49;53.63;100540.81;5041994;28;45630;-87
2022/06/23 08:19:18;;;;;;;;;6.33;6.33;;;;;24.70;53.70;100715.47;5065184;28;45401;-86
2022/06/23 08:22:00;;;;;;;;;3.00;3.00;;;;;24.78;53.50;100717.41;5052940;28;45505;-88
2022/06/23 08:24:26;;;;;;;;;4.33;3.00;;;;;24.96;52.79;100734.56;5038348;28;45741;-86
2022/06/23 08:27:13;;;;;;;;;3.33;3.33;;;;;25.12;53.24;100732.94;5050898;28;45612;-87
2022/06/23 08:29:44;;;;;;;;;5.00;5.00;;;;;25.20;52.21;100705.75;5042263;28;45698;-87
2022/06/23 08:32:12;;;;;;;;;6.00;6.00;;;;;25.65;50.37;100708.13;5060742;28;45776;-87
2022/06/23 08:34:42;;;;;;;;;11.00;6.67;;;;;25.97;49.95;100727.53;5049071;28;45426;-87
2022/06/23 08:37:18;;;;;;;;;5.00;5.00;;;;;26.04;49.33;100701.25;5057824;28;45909;-87
2022/06/23 08:39:55;;;;;;;;;5.67;3.67;;;;;26.47;48.58;100723.78;5046475;28;45543;-88
2022/06/23 08:42:25;;;;;;;;;4.67;4.00;;;;;26.44;48.58;100713.22;5058533;28;45680;-88
2022/06/23 08:45:01;;;;;;;;;4.67;4.67;;;;;26.62;48.30;100735.78;5049468;28;45538;-89
2022/06/23 08:47:39;;;;;;;;;5.00;5.00;;;;;26.82;47.73;100728.06;5050182;28;45485;-82
2022/06/23 08:52:50;;;;;;;;;2.67;2.67;;;;;27.04;46.76;100711.94;4995034;28;45554;-85
2022/06/23 08:55:56;;;;;;;;;3.33;3.33;;;;;27.07;45.78;100711.59;4999671;28;45474;-89
2022/06/23 08:59:10;;;;;;;;;4.33;2.33;;;;;27.38;46.59;100739.06;4978285;28;48003;-88
2022/06/23 09:01:52;;;;;;;;;4.33;4.33;;;;;27.56;45.62;100717.75;4883405;28;48372;-86
2022/06/23 09:04:48;;;;;;;;;7.00;5.67;;;;;27.95;45.42;100703.16;4899009;28;45562;-81
2022/06/23 09:07:40;;;;;;;;;6.00;4.00;;;;;28.75;44.34;100729.28;4901375;28;45508;-85
2022/06/23 09:14:11;;;;;;;;;5.75;3.00;;;;;29.80;42.76;100709.00;4854301;29;45673;-88
2022/06/23 09:17:00;;;;;;;;;2.67;2.67;;;;;30.42;40.67;100726.81;4858487;29;45692;-87
2022/06/23 09:19:53;;;;;;;;;5.00;3.00;;;;;30.93;40.19;100725.75;4857003;29;45327;-83
2022/06/23 09:22:47;;;;;;;;;7.33;5.67;;;;;31.34;39.06;100724.94;4857948;29;46112;-85
2022/06/23 09:25:27;;;;;;;;;3.00;3.00;;;;;31.78;38.76;100723.66;4859254;29;45428;-84
2022/06/23 09:28:14;;;;;;;;;3.67;3.67;;;;;32.07;37.78;100728.00;4858900;29;45498;-84
2022/06/23 09:30:51;;;;;;;;;4.67;4.67;;;;;32.33;36.76;100715.31;4859307;29;45474;-82
2022/06/23 09:33:22;;;;;;;;;3.00;3.00;;;;;32.17;35.58;100642.09;4859227;29;47367;-87
2022/06/23 09:35:53;;;;;;;;;3.00;3.00;;;;;33.00;35.24;100714.22;4859724;29;45533;-91
2022/06/23 09:38:28;;;;;;;;;2.75;2.75;;;;;33.25;34.53;100712.72;4907056;28;45491;-88
2022/06/23 09:41:30;;;;;;;;;3.00;3.00;;;;;33.55;34.38;100711.13;4931024;28;45652;-93
2022/06/23 09:44:18;;;;;;;;;3.00;3.00;;;;;33.48;33.57;100651.41;4941163;28;45526;-93
2022/06/23 09:47:02;;;;;;;;;2.00;2.00;;;;;34.00;33.34;100701.97;4933721;28;45523;-85
2022/06/23 09:49:47;;;;;;;;;4.00;3.33;;;;;34.18;33.10;100696.53;4979793;28;45557;-83
2022/06/23 09:52:52;;;;;;;;;2.33;2.33;;;;;34.29;32.90;100706.03;4991526;28;45495;-87
2022/06/23 09:55:45;;;;;;;;;7.00;4.00;;;;;34.56;32.39;100706.69;5000038;28;45490;-85
2022/06/23 09:58:30;;;;;;;;;2.33;2.33;;;;;34.32;32.26;100607.88;4993488;28;45628;-84
2022/06/23 10:01:08;;;;;;;;;4.00;3.00;;;;;35.18;31.43;100697.59;4994862;28;47286;-85
2022/06/23 10:04:21;;;;;;;;;3.67;3.00;;;;;34.96;30.66;100631.53;5021827;22;45576;-85
2022/06/23 10:07:05;;;;;;;;;2.67;2.67;;;;;35.59;30.27;100704.31;5011569;28;46205;-84
2022/06/23 10:09:49;;;;;;;;;5.00;4.00;;;;;35.78;30.70;100706.03;5045928;28;45512;-85
2022/06/23 10:12:54;;;;;;;;;2.00;2.00;;;;;36.01;29.88;100710.81;5050287;28;45528;-85
2022/06/23 10:15:51;;;;;;;;;2.00;2.00;;;;;35.13;30.13;100545.03;5047694;28;45667;-83
2022/06/23 10:19:01;;;;;;;;;2.00;2.00;;;;;36.17;29.14;100706.53;5045962;28;45545;-83
2022/06/23 10:22:04;;;;;;;;;2.00;2.00;;;;;36.13;29.24;100703.41;5048446;28;45537;-84
2022/06/23 10:24:38;;;;;;;;;4.33;2.00;;;;;36.29;29.23;100706.56;5051572;28;45391;-84
2022/06/23 10:30:44;;;;;;;;;1.00;1.00;;;;;36.39;28.92;100700.44;5082630;22;45608;-85
2022/06/23 10:33:48;;;;;;;;;3.00;3.00;;;;;35.55;28.69;100570.03;5039217;28;45529;-85
2022/06/23 10:36:36;;;;;;;;;2.00;2.00;;;;;36.11;29.36;100711.09;4992281;28;45335;-84
2022/06/23 10:39:55;;;;;;;;;2.67;2.67;;;;;35.96;29.60;100691.22;4992762;28;45633;-85
2022/06/23 10:42:29;;;;;;;;;4.00;2.33;;;;;35.98;29.31;100702.94;4929738;28;45874;-82
2022/06/23 10:45:22;;;;;;;;;2.00;2.00;;;;;36.03;28.58;100697.53;4931291;28;45482;-82
2022/06/23 10:48:22;;;;;;;;;2.67;2.67;;;;;36.13;28.59;100686.75;4926987;28;45596;-81
2022/06/23 10:51:06;;;;;;;;;2.00;2.00;;;;;36.39;27.37;100690.16;4926065;28;45521;-81
2022/06/23 10:53:50;;;;;;;;;1.67;1.67;;;;;36.55;27.34;100694.19;4930883;28;46196;-81
2022/06/23 10:56:31;;;;;;;;;3.00;3.00;;;;;36.50;27.70;100683.78;4929867;28;45999;-82
2022/06/23 10:59:20;;;;;;;;;2.33;2.33;;;;;36.53;28.11;100697.19;4931829;28;45503;-82
2022/06/23 11:01:54;;;;;;;;;3.00;2.67;;;;;36.36;27.92;100685.06;4932697;28;45733;-81
2022/06/23 11:04:29;;;;;;;;;2.33;2.33;;;;;36.28;27.36;100680.72;4932961;28;46200;-82
2022/06/23 11:07:13;;;;;;;;;2.00;2.00;;;;;36.17;28.31;100689.03;4932729;28;45674;-81
2022/06/23 11:09:38;;;;;;;;;3.00;3.00;;;;;36.17;27.74;100661.28;4930169;28;45567;-82
2022/06/23 11:12:24;;;;;;;;;3.00;3.00;;;;;36.33;27.00;100686.41;4935913;28;45298;-83
2022/06/23 11:15:01;;;;;;;;;2.67;2.00;;;;;36.16;27.60;100681.81;4983151;28;46868;-83
2022/06/23 11:17:38;;;;;;;;;3.67;1.00;;;;;36.00;28.21;100686.06;5050386;28;45437;-83
2022/06/23 11:20:04;;;;;;;;;4.33;3.33;;;;;35.81;28.45;100680.59;5030333;28;45480;-82
2022/06/23 11:22:43;;;;;;;;;2.33;2.33;;;;;35.08;27.96;100613.06;5053003;28;45736;-82
2022/06/23 11:25:25;;;;;;;;;2.33;2.33;;;;;35.29;27.73;100669.09;5057162;28;47239;-83
2022/06/23 11:28:05;;;;;;;;;5.00;3.00;;;;;34.78;28.68;100631.53;5048858;28;45683;-81
2022/06/23 11:30:52;;;;;;;;;2.33;2.33;;;;;34.80;29.37;100673.69;5053758;28;45516;-82
2022/06/23 11:33:40;;;;;;;;;1.33;1.33;;;;;33.94;28.63;100543.28;5049263;28;45495;-81
2022/06/23 11:36:25;;;;;;;;;2.67;2.33;;;;;33.95;29.36;100588.38;5054629;28;46159;-81
2022/06/23 11:39:10;;;;;;;;;4.00;4.00;;;;;33.56;29.76;100549.72;5048253;28;45410;-82
2022/06/23 11:42:16;;;;;;;;;2.33;2.33;;;;;33.95;29.32;100643.69;5051573;28;45378;-81
2022/06/23 11:47:34;;;;;;;;;4.00;4.00;;;;;34.09;29.96;100649.97;5059469;22;45469;-83
2022/06/23 11:50:17;;;;;;;;;2.00;2.00;;;;;33.99;29.54;100636.66;5054201;28;50475;-82
2022/06/23 11:53:13;;;;;;;;;2.67;2.67;;;;;33.80;29.40;100614.44;5053658;28;45388;-82
2022/06/23 11:55:57;;;;;;;;;2.67;2.67;;;;;33.94;29.97;100650.31;5053523;28;45477;-82
2022/06/23 11:58:40;;;;;;;;;2.00;2.00;;;;;33.77;29.97;100642.56;5056778;28;47063;-82
2022/06/23 12:01:15;;;;;;;;;4.00;2.33;;;;;33.50;29.84;100640.97;5056394;28;45347;-82
2022/06/23 12:03:55;;;;;;;;;5.33;4.00;;;;;33.45;30.16;100638.88;5046696;28;45767;-82
2022/06/23 12:06:40;;;;;;;;;2.67;2.67;;;;;33.39;29.71;100634.25;5054243;28;45510;-82
2022/06/23 12:09:43;;;;;;;;;2.00;2.00;;;;;33.24;30.48;100630.91;5048833;28;47405;-82
2022/06/23 12:12:09;;;;;;;;;4.00;4.00;;;;;33.06;30.36;100632.47;5047435;28;45358;-82
2022/06/23 12:14:37;;;;;;;;;5.00;4.00;;;;;33.03;30.79;100623.72;5052849;28;45369;-82
2022/06/23 12:17:09;;;;;;;;;3.33;3.33;;;;;33.00;30.26;100616.75;5050887;28;45538;-82
2022/06/23 12:19:46;;;;;;;;;4.00;4.00;;;;;32.75;30.23;100589.00;5055330;28;46368;-82
2022/06/23 12:22:24;;;;;;;;;3.33;3.00;;;;;32.74;30.51;100610.22;5054808;28;47278;-81
2022/06/23 12:25:08;;;;;;;;;4.67;4.00;;;;;32.63;30.85;100604.53;5055000;28;45486;-82
2022/06/23 12:27:33;;;;;;;;;3.00;3.00;;;;;32.56;30.66;100605.38;5049790;28;45897;-80
2022/06/23 12:30:08;;;;;;;;;6.33;3.67;;;;;32.48;30.95;100605.59;5037499;28;47640;-80
2022/06/23 12:33:06;;;;;;;;;4.00;3.67;;;;;32.37;31.36;100600.72;5052027;28;45544;-80
2022/06/23 12:35:40;;;;;;;;;2.33;2.33;;;;;32.26;31.18;100598.59;5036946;28;45726;-79
2022/06/23 12:38:15;;;;;;;;;3.00;3.00;;;;;32.02;31.25;100561.50;5048185;28;45709;-80
2022/06/23 12:40:55;;;;;;;;;5.67;4.67;;;;;32.03;31.33;100565.94;5050235;28;46160;-82
2022/06/23 12:43:36;;;;;;;;;3.00;3.00;;;;;32.18;31.30;100596.91;5055048;28;45557;-80
2022/06/23 12:46:05;;;;;;;;;4.00;3.00;;;;;32.17;31.79;100593.31;5051984;28;45481;-80